Time;durP1;ratioP1;P1;durP2;ratioP2;P2;SDS_P1;SDS_P2;PMS_P1;PMS_P2;Temp;Humidity;BMP_temperature;BMP_pressure;BME280_temperature;BME280_humidity;BME280_pressure;Samples;Min_cycle;Max_cycle;Signal;HPM_P1;HPM_P2
2022/01/13 00:04:53;;;;;;;86.40;37.40;;;;;;;-1.43;60.87;100793.59;220760;1277;139864;-59
2022/01/13 00:09:56;;;;;;;90.90;38.10;;;;;;;-1.40;60.97;100788.41;221452;1276;139445;-59
2022/01/13 00:25:41;;;;;;;72.60;32.00;;;;;;;-1.36;61.30;100768.27;221024;1276;139548;-62
2022/01/13 00:30:49;;;;;;;80.90;35.60;;;;;;;-1.32;61.57;100754.05;221379;1275;140679;-62
2022/01/13 00:35:55;;;;;;;87.10;36.10;;;;;;;-1.25;61.61;100760.94;221342;1276;140515;-62
2022/01/13 00:40:58;;;;;;;66.60;29.30;;;;;;;-1.24;61.69;100769.14;221459;1275;139974;-61
2022/01/13 00:46:01;;;;;;;98.60;40.00;;;;;;;-1.21;61.92;100766.74;221550;1274;139333;-62
2022/01/13 00:51:04;;;;;;;88.50;38.60;;;;;;;-1.16;61.91;100763.84;221362;1276;140237;-64
2022/01/13 00:56:08;;;;;;;90.70;37.60;;;;;;;-1.14;62.10;100757.95;221289;1276;139657;-61
2022/01/13 01:01:11;;;;;;;80.60;34.80;;;;;;;-1.14;62.22;100776.41;221065;1276;138962;-62
2022/01/13 01:06:14;;;;;;;73.20;31.80;;;;;;;-1.16;62.63;100789.27;221296;1276;139467;-63
2022/01/13 01:11:17;;;;;;;77.80;31.40;;;;;;;-1.13;62.82;100796.63;221409;1275;139824;-62
2022/01/13 01:16:21;;;;;;;85.50;37.30;;;;;;;-1.05;62.91;100807.36;221420;1274;140161;-63
2022/01/13 01:31:35;;;;;;;85.90;38.00;;;;;;;-0.91;62.90;100797.61;221367;1274;140044;-60
2022/01/13 01:36:39;;;;;;;84.20;38.30;;;;;;;-0.85;63.17;100815.48;221311;1275;141122;-64
2022/01/13 01:41:48;;;;;;;91.70;37.40;;;;;;;-0.80;63.29;100817.79;221428;1276;139981;-60
2022/01/13 01:46:51;;;;;;;86.80;34.60;;;;;;;-0.76;63.42;100812.97;221418;1274;139520;-60
2022/01/13 01:52:00;;;;;;;82.20;37.00;;;;;;;-0.72;63.40;100797.16;221318;1275;140202;-61
2022/01/13 01:57:07;;;;;;;77.70;35.10;;;;;;;-0.63;63.68;100792.57;221082;1276;141356;-60
2022/01/13 02:02:12;;;;;;;80.50;35.60;;;;;;;-0.54;63.88;100790.92;221317;1275;139668;-58
2022/01/13 02:07:16;;;;;;;81.50;35.20;;;;;;;-0.47;64.01;100797.63;221522;1275;140176;-59
2022/01/13 02:17:40;;;;;;;70.50;34.70;;;;;;;-0.41;64.40;100773.10;221257;1276;140335;-58
2022/01/13 02:22:43;;;;;;;75.90;32.80;;;;;;;-0.39;64.59;100801.02;221163;1277;139571;-60
2022/01/13 02:27:46;;;;;;;74.70;33.90;;;;;;;-0.38;64.93;100810.29;220953;1276;139976;-54
2022/01/13 02:32:49;;;;;;;59.90;28.40;;;;;;;-0.38;65.06;100783.60;221269;1277;139737;-58
2022/01/13 02:37:52;;;;;;;64.20;27.70;;;;;;;-0.33;65.28;100755.23;221438;1275;140472;-60
2022/01/13 02:42:55;;;;;;;65.50;32.10;;;;;;;-0.29;65.40;100739.92;221316;1275;141117;-60
2022/01/13 02:48:13;;;;;;;60.50;26.00;;;;;;;-0.27;65.63;100725.30;221453;1276;141680;-57
2022/01/13 02:53:16;;;;;;;61.50;26.50;;;;;;;-0.28;65.87;100710.81;221312;1276;140498;-56
2022/01/13 02:58:19;;;;;;;68.30;32.50;;;;;;;-0.29;66.15;100720.91;221231;1276;140320;-60
2022/01/13 03:03:23;;;;;;;65.50;32.30;;;;;;;-0.25;66.36;100730.20;221370;1276;139341;-61
2022/01/13 03:08:26;;;;;;;63.90;30.10;;;;;;;-0.23;66.40;100746.60;221473;1274;140927;-59
2022/01/13 03:13:29;;;;;;;61.30;27.90;;;;;;;-0.17;66.73;100760.95;221304;1274;139767;-59
2022/01/13 03:18:32;;;;;;;58.10;28.70;;;;;;;-0.14;66.92;100759.77;221319;1276;139971;-58
2022/01/13 03:23:36;;;;;;;53.20;27.40;;;;;;;-0.08;66.88;100747.08;221405;1275;139768;-58
2022/01/13 03:28:50;;;;;;;60.70;29.20;;;;;;;-0.03;67.25;100751.85;221408;1276;139621;-56
2022/01/13 03:33:54;;;;;;;56.90;27.90;;;;;;;0.02;67.22;100740.72;221553;1275;140258;-59
2022/01/13 03:38:57;;;;;;;44.80;23.00;;;;;;;0.00;67.37;100729.71;221314;1276;139152;-60
2022/01/13 03:44:06;;;;;;;52.30;27.10;;;;;;;-0.03;67.46;100713.30;221378;1276;139433;-60
2022/01/13 03:49:09;;;;;;;59.00;28.50;;;;;;;-0.04;67.72;100709.27;221397;1275;139241;-60
2022/01/13 03:54:35;;;;;;;56.00;27.20;;;;;;;-0.02;67.87;100698.98;221430;1275;139597;-59
2022/01/13 03:59:57;;;;;;;48.10;24.70;;;;;;;0.03;68.00;100733.05;221361;1275;139689;-58
2022/01/13 04:05:00;;;;;;;55.10;26.30;;;;;;;0.11;68.34;100733.12;221270;1276;140029;-58
2022/01/13 04:10:29;;;;;;;51.50;26.40;;;;;;;0.19;68.14;100739.80;221424;1275;165205;-59
2022/01/13 04:15:33;;;;;;;52.80;28.40;;;;;;;0.29;68.68;100730.63;221416;1276;139197;-60
2022/01/13 04:20:36;;;;;;;59.70;28.40;;;;;;;0.45;68.68;100719.55;221424;1275;141453;-60
2022/01/13 04:25:42;;;;;;;53.30;26.70;;;;;;;0.47;68.60;100719.55;221392;1276;138844;-59
2022/01/13 04:30:47;;;;;;;48.80;25.20;;;;;;;0.47;68.52;100709.80;221175;1276;140227;-54
2022/01/13 04:35:50;;;;;;;;;;;;;;;0.58;68.68;100705.15;221472;1274;141008;-59
2022/01/13 04:41:00;;;;;;;56.70;27.30;;;;;;;0.57;68.50;100697.63;221141;1276;126075;-60
2022/01/13 04:46:03;;;;;;;51.60;26.70;;;;;;;0.55;68.59;100694.13;221463;1276;139150;-60
2022/01/13 04:51:06;;;;;;;38.30;19.10;;;;;;;0.54;68.68;100696.20;221334;1276;138908;-59
2022/01/13 04:56:15;;;;;;;46.40;23.90;;;;;;;0.56;68.76;100697.45;221293;1276;140722;-59
2022/01/13 05:01:18;;;;;;;51.20;26.50;;;;;;;0.55;68.82;100703.20;221460;1276;140915;-59
2022/01/13 05:06:21;;;;;;;55.40;26.50;;;;;;;0.58;69.03;100704.61;221229;1275;143237;-63
2022/01/13 05:11:24;;;;;;;41.00;23.10;;;;;;;0.55;69.01;100702.50;221320;1275;139098;-57
2022/01/13 05:16:35;;;;;;;38.20;20.00;;;;;;;0.56;69.05;100697.45;221457;1275;140236;-57
2022/01/13 05:26:41;;;;;;;39.50;20.10;;;;;;;0.63;69.30;100683.86;221353;1276;139850;-60
2022/01/13 05:31:44;;;;;;;42.20;21.80;;;;;;;0.65;69.20;100700.48;221291;1275;140482;-59
2022/01/13 05:36:47;;;;;;;46.40;22.80;;;;;;;0.68;69.43;100697.16;221231;1276;140257;-60
2022/01/13 05:41:50;;;;;;;43.30;21.60;;;;;;;0.71;69.55;100691.75;221415;1274;139537;-59
2022/01/13 05:46:53;;;;;;;36.00;18.70;;;;;;;0.69;69.55;100679.01;221314;1275;139479;-57
2022/01/13 05:51:56;;;;;;;42.10;22.30;;;;;;;0.71;69.55;100677.78;221509;1275;139777;-58
2022/01/13 05:56:59;;;;;;;42.30;22.60;;;;;;;0.75;69.71;100668.02;221393;1276;140179;-58
2022/01/13 06:02:03;;;;;;;42.00;21.90;;;;;;;0.75;69.92;100670.46;221387;1274;140482;-57
2022/01/13 06:07:07;;;;;;;44.90;22.40;;;;;;;0.73;70.00;100674.48;221187;1276;140047;-60
2022/01/13 06:12:10;;;;;;;47.20;24.10;;;;;;;0.78;70.06;100680.44;221290;1277;140641;-60
2022/01/13 06:17:15;;;;;;;47.90;24.30;;;;;;;0.84;70.21;100676.77;221532;1274;140368;-61
2022/01/13 06:22:18;;;;;;;50.60;24.10;;;;;;;0.87;70.27;100674.88;221422;1276;140831;-61
2022/01/13 06:27:22;;;;;;;38.80;18.40;;;;;;;0.93;70.29;100666.69;221210;1276;139868;-61
2022/01/13 06:32:25;;;;;;;47.70;26.50;;;;;;;0.97;70.16;100666.70;220980;1277;139744;-60
2022/01/13 06:37:28;;;;;;;48.00;23.90;;;;;;;0.99;70.33;100664.09;221087;1277;140329;-60
2022/01/13 06:42:31;;;;;;;43.40;22.10;;;;;;;1.02;70.39;100666.38;221142;1276;140087;-61
2022/01/13 06:47:34;;;;;;;43.10;21.20;;;;;;;1.06;70.28;100674.08;221314;1276;140001;-58
2022/01/13 06:52:38;;;;;;;49.60;23.90;;;;;;;1.08;70.38;100679.67;221473;1275;139614;-59
2022/01/13 06:57:41;;;;;;;45.70;24.40;;;;;;;1.09;70.51;100687.54;221262;1276;139411;-59
2022/01/13 07:02:45;;;;;;;41.30;21.20;;;;;;;1.14;70.56;100678.29;221047;1277;139261;-61
2022/01/13 07:07:48;;;;;;;46.80;25.00;;;;;;;1.19;70.45;100673.23;221292;1277;140031;-60
2022/01/13 07:12:51;;;;;;;50.90;23.80;;;;;;;1.21;70.45;100664.85;221249;1277;140243;-59
2022/01/13 07:17:54;;;;;;;40.60;20.70;;;;;;;1.23;70.56;100655.41;221300;1276;139054;-61
2022/01/13 07:22:58;;;;;;;49.80;25.30;;;;;;;1.26;70.24;100651.73;221309;1276;139166;-62
2022/01/13 07:28:01;;;;;;;51.10;26.20;;;;;;;1.31;70.44;100646.50;221606;1277;139196;-58
2022/01/13 07:33:03;;;;;;;51.30;26.10;;;;;;;1.34;70.38;100658.75;221371;1275;140918;-60
2022/01/13 07:38:07;;;;;;;39.80;21.60;;;;;;;1.41;70.36;100665.41;221147;1275;139950;-58
2022/01/13 07:43:10;;;;;;;40.80;22.00;;;;;;;1.48;70.29;100672.06;221410;1275;139978;-60
2022/01/13 07:48:13;;;;;;;44.50;22.00;;;;;;;1.55;70.26;100674.52;221420;1275;140351;-59
2022/01/13 07:53:16;;;;;;;35.80;19.60;;;;;;;1.56;70.14;100665.42;220964;1276;139522;-59
2022/01/13 07:58:19;;;;;;;37.60;20.90;;;;;;;1.57;70.17;100649.52;221450;1275;139732;-61
2022/01/13 08:03:22;;;;;;;31.70;16.80;;;;;;;1.58;70.03;100626.25;221179;1277;139908;-59
2022/01/13 08:08:25;;;;;;;35.60;19.40;;;;;;;1.66;70.22;100602.64;221255;1275;139920;-61
2022/01/13 08:13:28;;;;;;;30.40;17.20;;;;;;;1.75;70.12;100592.65;221240;1276;142036;-61
2022/01/13 08:23:54;;;;;;;34.30;17.50;;;;;;;1.75;69.83;100589.33;221356;1275;139450;-61
2022/01/13 08:28:57;;;;;;;32.20;16.30;;;;;;;1.75;69.70;100589.50;221226;1275;140137;-59
2022/01/13 08:34:00;;;;;;;27.50;14.50;;;;;;;1.75;69.69;100590.20;221513;1276;139774;-60
2022/01/13 08:39:03;;;;;;;26.50;15.00;;;;;;;1.74;69.81;100587.23;221325;1274;139176;-58
2022/01/13 08:44:06;;;;;;;28.00;14.70;;;;;;;1.74;69.76;100586.00;221371;1275;139578;-60
2022/01/13 08:49:10;;;;;;;28.20;14.50;;;;;;;1.78;69.76;100595.98;221348;1275;140791;-60
2022/01/13 08:54:13;;;;;;;29.70;14.70;;;;;;;1.81;69.70;100597.89;221330;1276;140657;-62
2022/01/13 08:59:16;;;;;;;25.90;14.70;;;;;;;1.89;69.82;100598.41;221274;1276;139909;-61
2022/01/13 09:04:19;;;;;;;22.30;11.80;;;;;;;1.96;69.67;100600.84;221582;1276;140889;-59
2022/01/13 09:09:22;;;;;;;25.70;14.70;;;;;;;2.02;69.53;100591.91;221158;1276;140670;-60
2022/01/13 09:14:27;;;;;;;31.30;15.60;;;;;;;2.07;69.47;100580.69;221267;1276;139303;-59
2022/01/13 09:19:34;;;;;;;28.90;15.70;;;;;;;2.13;69.36;100572.45;221332;1274;139591;-60
2022/01/13 09:24:37;;;;;;;147.50;73.70;;;;;;;2.11;69.28;100579.28;221234;1276;140593;-59
2022/01/13 09:29:40;;;;;;;28.70;15.60;;;;;;;2.25;69.31;100587.81;221353;1276;140821;-60
2022/01/13 09:34:47;;;;;;;31.30;16.80;;;;;;;2.25;68.93;100572.95;221231;1276;140453;-60
2022/01/13 09:39:50;;;;;;;33.20;17.60;;;;;;;2.26;68.92;100583.79;221415;1276;141003;-61
2022/01/13 09:44:55;;;;;;;32.80;17.50;;;;;;;2.27;68.70;100564.89;221077;1274;139414;-61
2022/01/13 09:50:01;;;;;;;36.50;18.30;;;;;;;2.29;68.69;100553.83;221388;1275;139481;-60
2022/01/13 09:55:06;;;;;;;37.00;17.80;;;;;;;2.31;68.55;100536.48;221345;1274;139470;-61
2022/01/13 10:00:12;;;;;;;39.00;20.40;;;;;;;2.41;68.73;100536.79;221320;1276;139447;-61
2022/01/13 10:05:17;;;;;;;34.10;17.10;;;;;;;2.54;68.64;100546.20;221374;1274;139935;-58
2022/01/13 10:10:25;;;;;;;35.70;18.80;;;;;;;2.64;68.26;100539.83;221306;1276;139524;-59
2022/01/13 10:21:07;;;;;;;30.90;16.40;;;;;;;2.77;67.81;100544.14;221060;1275;139334;-59
2022/01/13 10:26:12;;;;;;;31.10;17.00;;;;;;;2.84;67.78;100541.98;221242;1274;141305;-58
2022/01/13 10:31:16;;;;;;;28.80;15.40;;;;;;;2.98;67.87;100506.48;221348;1275;140088;-58
2022/01/13 10:36:19;;;;;;;37.10;15.80;;;;;;;3.09;67.38;100509.02;221330;1276;139654;-59
2022/01/13 10:41:37;;;;;;;34.80;17.30;;;;;;;3.18;67.22;100494.23;221350;1275;139993;-61
2022/01/13 10:47:04;;;;;;;32.90;17.60;;;;;;;3.20;66.83;100487.02;221278;1277;139896;-57
2022/01/13 10:52:26;;;;;;;30.00;15.10;;;;;;;3.22;66.57;100480.69;221250;1276;139502;-62
2022/01/13 10:57:30;;;;;;;23.80;12.30;;;;;;;3.21;66.37;100479.83;221196;1276;139646;-60
2022/01/13 11:02:33;;;;;;;31.20;16.20;;;;;;;3.22;66.33;100469.98;221091;1276;140589;-61
2022/01/13 11:07:37;;;;;;;28.40;13.60;;;;;;;3.23;66.14;100478.40;221364;1277;139705;-58
2022/01/13 11:12:44;;;;;;;29.40;15.50;;;;;;;3.29;66.07;100482.20;221241;1276;139200;-59
2022/01/13 11:17:49;;;;;;;30.10;14.20;;;;;;;3.37;66.03;100473.20;221161;1276;140652;-58
2022/01/13 11:22:53;;;;;;;27.50;14.20;;;;;;;3.38;65.78;100461.07;221207;1276;140228;-57
2022/01/13 11:27:57;;;;;;;30.50;15.00;;;;;;;3.35;65.75;100459.17;221153;1276;140407;-61
2022/01/13 11:33:00;;;;;;;24.50;13.90;;;;;;;3.34;65.72;100446.90;221305;1275;139881;-59
2022/01/13 11:38:05;;;;;;;27.60;14.00;;;;;;;3.35;65.74;100447.77;221552;1274;140704;-61
2022/01/13 11:43:46;;;;;;;36.00;15.10;;;;;;;3.39;65.65;100446.33;221179;1276;139585;-61
2022/01/13 11:48:59;;;;;;;35.70;17.30;;;;;;;3.49;66.03;100438.84;221302;1274;139482;-61
2022/01/13 11:54:06;;;;;;;27.60;13.40;;;;;;;3.57;65.83;100426.84;221347;1276;139535;-61
2022/01/13 11:59:25;;;;;;;25.00;13.20;;;;;;;3.57;65.54;100422.80;221324;1276;142675;-59
2022/01/13 12:04:28;;;;;;;28.70;14.20;;;;;;;3.55;65.71;100405.10;221542;1276;139430;-62
2022/01/13 12:09:31;;;;;;;31.40;14.50;;;;;;;3.59;65.69;100387.70;221348;1276;139390;-63
2022/01/13 12:14:39;;;;;;;27.30;14.40;;;;;;;3.67;66.03;100388.98;221302;1276;139525;-60
2022/01/13 12:19:48;;;;;;;32.60;15.60;;;;;;;3.75;65.98;100400.29;221360;1276;139838;-62
2022/01/13 12:25:00;;;;;;;34.00;14.80;;;;;;;3.79;65.49;100377.77;221340;1275;140506;-61
2022/01/13 12:30:10;;;;;;;33.90;15.70;;;;;;;3.81;65.68;100371.27;221489;1274;139836;-61
2022/01/13 12:35:34;;;;;;;37.40;17.10;;;;;;;3.87;65.71;100373.46;221074;1274;140207;-62
2022/01/13 12:40:45;;;;;;;37.00;15.70;;;;;;;3.91;65.84;100364.65;221173;1276;140911;-61
2022/01/13 12:45:49;;;;;;;29.80;15.70;;;;;;;3.95;65.80;100345.09;221176;1275;140661;-62
2022/01/13 12:50:52;;;;;;;24.50;12.90;;;;;;;3.99;65.93;100331.86;221284;1275;138696;-62
2022/01/13 12:56:15;;;;;;;32.40;14.30;;;;;;;4.03;66.09;100319.53;221133;1276;139273;-62
2022/01/13 13:01:21;;;;;;;24.50;13.10;;;;;;;4.10;66.10;100313.27;221272;1275;139845;-62
2022/01/13 13:06:26;;;;;;;34.80;16.00;;;;;;;4.10;66.04;100307.30;221252;1274;139453;-62
2022/01/13 13:11:30;;;;;;;30.30;16.30;;;;;;;4.10;66.21;100302.20;221191;1275;139267;-62
2022/01/13 13:16:33;;;;;;;31.20;17.00;;;;;;;4.12;66.18;100293.23;221462;1276;142746;-62
2022/01/13 13:21:36;;;;;;;31.40;16.00;;;;;;;4.08;65.86;100281.34;221345;1276;139526;-61
2022/01/13 13:26:42;;;;;;;29.60;15.20;;;;;;;4.06;66.00;100280.86;221350;1274;139193;-61
2022/01/13 13:31:46;;;;;;;26.90;14.70;;;;;;;4.02;66.39;100276.50;220868;1276;139350;-59
2022/01/13 13:36:50;;;;;;;34.40;16.90;;;;;;;3.97;66.57;100285.55;221290;1276;139102;-62
2022/01/13 13:41:56;;;;;;;30.20;16.80;;;;;;;3.91;66.62;100276.33;221408;1275;139705;-62
2022/01/13 13:47:03;;;;;;;36.10;18.00;;;;;;;3.90;66.86;100278.46;221289;1276;139703;-62
2022/01/13 13:52:08;;;;;;;112.90;61.60;;;;;;;3.85;67.07;100283.44;221559;1274;139631;-62
2022/01/13 13:57:14;;;;;;;30.10;16.20;;;;;;;3.88;67.39;100281.81;221313;1276;139948;-62
2022/01/13 14:02:20;;;;;;;32.50;16.90;;;;;;;3.91;67.50;100275.30;221275;1277;139328;-61
2022/01/13 14:08:03;;;;;;;32.50;17.40;;;;;;;3.89;67.73;100276.17;221482;1275;139736;-62
2022/01/13 14:13:10;;;;;;;33.70;18.30;;;;;;;3.90;67.77;100269.33;221838;1274;140643;-62
2022/01/13 14:18:15;;;;;;;31.70;18.20;;;;;;;3.93;67.92;100278.92;221936;1274;139239;-63
2022/01/13 14:23:32;;;;;;;30.90;16.70;;;;;;;3.92;67.98;100278.42;222052;1274;138658;-62
2022/01/13 14:28:37;;;;;;;32.90;17.90;;;;;;;3.89;68.08;100282.15;222014;1274;139300;-61
2022/01/13 14:33:48;;;;;;;28.90;16.50;;;;;;;3.91;68.27;100286.16;221984;1275;139381;-62
2022/01/13 14:38:56;;;;;;;37.30;19.10;;;;;;;3.92;68.27;100273.67;221854;1276;138967;-62
2022/01/13 14:44:11;;;;;;;26.50;14.70;;;;;;;3.91;68.32;100267.71;221982;1274;139480;-62
2022/01/13 14:49:14;;;;;;;33.80;18.00;;;;;;;3.97;68.50;100261.67;221546;1276;139810;-63
2022/01/13 14:54:17;;;;;;;27.70;17.70;;;;;;;3.99;68.55;100266.02;221992;1274;139686;-59
2022/01/13 14:59:20;;;;;;;31.30;18.40;;;;;;;4.01;68.56;100276.18;221845;1274;139329;-59
2022/01/13 15:04:23;;;;;;;33.30;17.90;;;;;;;4.09;68.77;100281.69;221999;1274;139170;-62
2022/01/13 15:09:26;;;;;;;33.80;17.40;;;;;;;4.13;68.58;100287.05;222040;1274;140049;-61
2022/01/13 15:14:29;;;;;;;31.10;17.00;;;;;;;4.12;68.71;100303.58;222011;1274;138758;-63
2022/01/13 15:19:32;;;;;;;32.80;17.90;;;;;;;4.11;68.69;100320.45;221910;1274;139335;-60
2022/01/13 15:24:36;;;;;;;33.20;19.10;;;;;;;4.13;68.62;100344.66;221840;1276;139347;-58
2022/01/13 15:29:40;;;;;;;35.50;20.00;;;;;;;4.21;68.83;100349.80;221956;1274;140220;-60
2022/01/13 15:34:43;;;;;;;34.30;19.90;;;;;;;4.24;68.70;100344.14;222144;1275;139447;-60
2022/01/13 15:39:46;;;;;;;31.40;19.40;;;;;;;4.27;68.38;100351.64;221777;1274;140047;-60
2022/01/13 15:44:49;;;;;;;32.70;18.70;;;;;;;4.28;68.69;100346.36;221912;1275;140830;-60
2022/01/13 15:49:52;;;;;;;32.70;18.20;;;;;;;4.29;68.68;100360.58;222008;1274;139535;-60
2022/01/13 15:54:54;;;;;;;33.60;19.50;;;;;;;4.26;68.42;100371.52;221972;1274;139939;-59
2022/01/13 15:59:57;;;;;;;30.80;18.40;;;;;;;4.26;68.29;100371.69;221752;1274;139372;-61
2022/01/13 16:05:01;;;;;;;27.50;17.20;;;;;;;4.30;68.35;100367.59;221843;1275;140629;-60
2022/01/13 16:10:05;;;;;;;27.20;16.50;;;;;;;4.35;68.44;100359.79;221733;1274;206519;-60
2022/01/13 16:15:12;;;;;;;27.90;16.20;;;;;;;4.38;68.41;100354.13;221147;1275;139628;-61
2022/01/13 16:20:20;;;;;;;27.70;16.30;;;;;;;4.36;68.36;100331.66;221893;1274;139872;-60
2022/01/13 16:25:23;;;;;;;28.00;16.90;;;;;;;4.33;68.32;100330.12;221922;1274;139572;-61
2022/01/13 16:30:27;;;;;;;30.00;16.60;;;;;;;4.30;68.39;100318.77;221822;1274;139931;-61
2022/01/13 16:35:30;;;;;;;26.20;15.80;;;;;;;4.33;68.33;100319.78;221741;1274;140178;-61
2022/01/13 16:40:37;;;;;;;26.90;15.80;;;;;;;4.40;68.21;100313.33;221959;1274;139675;-60
2022/01/13 16:45:42;;;;;;;26.60;16.30;;;;;;;4.80;69.98;100298.21;221944;1274;139896;-61
2022/01/13 16:50:45;;;;;;;28.70;17.20;;;;;;;5.05;68.70;100294.77;221926;1274;139920;-61
2022/01/13 16:55:51;;;;;;;31.70;17.10;;;;;;;4.90;67.75;100295.74;221956;1274;139622;-60
2022/01/13 17:00:54;;;;;;;27.70;16.50;;;;;;;4.73;67.50;100293.61;221769;1274;140276;-60
2022/01/13 17:05:58;;;;;;;22.10;14.20;;;;;;;4.62;67.90;100290.63;221352;1274;139962;-61
2022/01/13 17:11:01;;;;;;;26.20;16.60;;;;;;;4.56;67.37;100290.40;221349;1276;140476;-59
2022/01/13 17:16:04;;;;;;;31.70;17.90;;;;;;;4.48;67.63;100300.36;221405;1276;140140;-60
2022/01/13 17:21:07;;;;;;;32.40;18.80;;;;;;;4.43;67.57;100312.05;221318;1276;139863;-58
2022/01/13 17:26:11;;;;;;;39.40;24.30;;;;;;;4.56;68.50;100331.17;221327;1277;141866;-58
2022/01/13 17:31:14;;;;;;;31.30;18.30;;;;;;;5.20;70.33;100333.16;221331;1274;140041;-57
2022/01/13 17:36:19;;;;;;;37.10;19.70;;;;;;;5.52;68.38;100340.27;221333;1275;142148;-60
2022/01/13 17:41:23;;;;;;;29.90;18.60;;;;;;;5.36;67.23;100341.30;221260;1276;139954;-59
2022/01/13 17:46:28;;;;;;;29.10;17.90;;;;;;;5.18;66.86;100345.00;221401;1274;140640;-59
2022/01/13 17:51:31;;;;;;;29.40;18.10;;;;;;;5.04;66.84;100350.90;221234;1275;139727;-60
2022/01/13 17:56:34;;;;;;;32.20;18.30;;;;;;;4.88;66.75;100348.52;221268;1276;139135;-60
2022/01/13 18:01:37;;;;;;;46.60;24.80;;;;;;;4.85;67.41;100344.19;221169;1277;141111;-60
2022/01/13 18:06:42;;;;;;;32.40;18.70;;;;;;;4.89;67.04;100338.33;221244;1277;139922;-58
2022/01/13 18:11:45;;;;;;;31.60;18.50;;;;;;;4.79;66.58;100333.23;221291;1276;140118;-58
2022/01/13 18:16:51;;;;;;;55.90;28.10;;;;;;;4.96;68.05;100332.39;221324;1275;139695;-59
2022/01/13 18:21:54;;;;;;;28.90;19.00;;;;;;;5.13;67.22;100332.94;221225;1276;139585;-60
2022/01/13 18:26:58;;;;;;;30.60;17.60;;;;;;;5.00;66.95;100323.55;221355;1275;139631;-60
2022/01/13 18:32:01;;;;;;;27.70;17.80;;;;;;;4.88;66.68;100329.73;221230;1276;140273;-59
2022/01/13 18:37:04;;;;;;;28.10;17.20;;;;;;;4.83;66.81;100329.47;221360;1275;139311;-58
2022/01/13 18:42:14;;;;;;;27.10;16.70;;;;;;;4.75;66.67;100319.94;221127;1276;139133;-60
2022/01/13 18:47:17;;;;;;;29.80;18.00;;;;;;;4.71;67.12;100311.02;221048;1275;139815;-60
2022/01/13 18:52:20;;;;;;;26.60;16.80;;;;;;;4.73;67.23;100301.52;221236;1275;141485;-58
2022/01/13 18:57:24;;;;;;;26.70;16.50;;;;;;;4.77;67.08;100305.83;221272;1276;142393;-60
2022/01/13 19:02:27;;;;;;;25.60;16.00;;;;;;;4.79;67.09;100296.49;221459;1276;139809;-59
2022/01/13 19:07:30;;;;;;;26.00;15.40;;;;;;;4.77;67.23;100297.06;221341;1275;139437;-60
2022/01/13 19:12:34;;;;;;;26.60;16.60;;;;;;;4.78;67.49;100305.12;221159;1275;139509;-60
2022/01/13 19:22:56;;;;;;;24.00;13.20;;;;;;;4.80;67.09;100317.94;221261;1276;140425;-60
2022/01/13 19:28:02;;;;;;;24.70;15.40;;;;;;;4.80;67.22;100316.16;221354;1276;139532;-61
2022/01/13 19:33:09;;;;;;;85.40;56.10;;;;;;;4.81;67.35;100314.73;221333;1276;139677;-60
2022/01/13 19:38:13;;;;;;;34.00;19.70;;;;;;;4.90;67.86;100320.88;221148;1276;141185;-59
2022/01/13 19:43:16;;;;;;;27.60;17.20;;;;;;;4.94;67.54;100327.67;221227;1274;139351;-58
2022/01/13 19:48:19;;;;;;;30.10;16.50;;;;;;;4.90;67.13;100319.30;221487;1275;139630;-60
2022/01/13 19:53:24;;;;;;;31.10;17.40;;;;;;;4.89;67.16;100321.98;221239;1276;140408;-60
2022/01/13 19:58:27;;;;;;;27.10;15.80;;;;;;;4.91;67.09;100326.66;221348;1276;139887;-60
2022/01/13 20:03:33;;;;;;;28.00;15.70;;;;;;;4.93;67.51;100328.58;221447;1276;140113;-58
2022/01/13 20:08:36;;;;;;;21.30;14.00;;;;;;;4.91;67.44;100326.50;221281;1277;139488;-61
2022/01/13 20:13:39;;;;;;;29.60;15.90;;;;;;;4.85;66.97;100320.46;221324;1277;139359;-58
2022/01/13 20:18:42;;;;;;;30.70;18.60;;;;;;;4.78;67.40;100300.36;221311;1276;141743;-60
2022/01/13 20:23:45;;;;;;;31.10;17.30;;;;;;;4.70;67.12;100300.52;221299;1275;139550;-59
2022/01/13 20:28:49;;;;;;;31.80;17.10;;;;;;;4.69;67.36;100301.23;221347;1275;140087;-62
2022/01/13 20:33:53;;;;;;;29.20;16.40;;;;;;;4.69;67.54;100312.65;221270;1276;140398;-59
2022/01/13 20:38:56;;;;;;;31.20;17.50;;;;;;;4.72;67.72;100316.66;221238;1277;140035;-59
2022/01/13 20:44:00;;;;;;;31.70;17.40;;;;;;;4.69;67.55;100316.17;221150;1274;139646;-62
2022/01/13 20:49:05;;;;;;;33.60;17.80;;;;;;;4.65;67.57;100310.45;221151;1276;139468;-60
2022/01/13 20:54:08;;;;;;;33.70;18.20;;;;;;;4.66;67.82;100304.11;221001;1277;140234;-62
2022/01/13 20:59:11;;;;;;;31.80;18.10;;;;;;;4.64;67.77;100290.95;221255;1277;139947;-61
2022/01/13 21:04:14;;;;;;;32.30;19.50;;;;;;;4.66;67.91;100286.36;221298;1277;138978;-61
2022/01/13 21:09:18;;;;;;;31.80;19.00;;;;;;;4.72;68.07;100268.64;221135;1277;140017;-62
2022/01/13 21:14:22;;;;;;;33.70;18.10;;;;;;;4.67;67.66;100272.96;221241;1277;139897;-61
2022/01/13 21:19:26;;;;;;;28.50;16.80;;;;;;;4.63;67.63;100269.52;221181;1276;140028;-61
2022/01/13 21:24:29;;;;;;;31.20;18.70;;;;;;;4.60;67.81;100265.36;221250;1276;139620;-60
2022/01/13 21:29:32;;;;;;;35.40;18.50;;;;;;;4.59;67.92;100260.30;221195;1276;141032;-60
2022/01/13 21:34:36;;;;;;;32.70;18.90;;;;;;;4.59;67.91;100249.58;221392;1274;139196;-59
2022/01/13 21:39:39;;;;;;;32.90;18.10;;;;;;;4.54;67.90;100248.95;221407;1274;139373;-60
2022/01/13 21:44:44;;;;;;;27.00;16.20;;;;;;;4.48;67.85;100230.07;221317;1274;139867;-61
2022/01/13 21:49:52;;;;;;;33.20;18.30;;;;;;;4.50;68.02;100227.91;220782;1276;140232;-62
2022/01/13 21:54:55;;;;;;;34.00;18.70;;;;;;;4.50;68.18;100230.73;221026;1275;139730;-60
2022/01/13 21:59:59;;;;;;;33.40;18.30;;;;;;;4.48;68.16;100205.30;221347;1277;138585;-62
2022/01/13 22:05:04;;;;;;;32.10;18.00;;;;;;;4.47;68.42;100191.61;221152;1275;139303;-62
2022/01/13 22:10:08;;;;;;;36.60;19.50;;;;;;;4.48;68.18;100184.21;221311;1276;139273;-64
2022/01/13 22:15:11;;;;;;;31.20;17.70;;;;;;;4.49;68.32;100183.30;221351;1276;140798;-61
2022/01/13 22:20:14;;;;;;;31.10;18.20;;;;;;;4.50;68.38;100179.95;221384;1273;139929;-59
2022/01/13 22:25:17;;;;;;;32.20;18.10;;;;;;;4.51;68.38;100172.20;221317;1274;141805;-59
2022/01/13 22:30:20;;;;;;;28.20;17.00;;;;;;;4.48;68.28;100169.80;221338;1276;139286;-61
2022/01/13 22:35:24;;;;;;;245.00;127.10;;;;;;;4.48;68.29;100183.52;221334;1276;140175;-58
2022/01/13 22:40:27;;;;;;;56.50;33.20;;;;;;;4.54;68.43;100177.25;221453;1277;140961;-60
2022/01/13 22:45:30;;;;;;;33.40;17.30;;;;;;;4.62;68.52;100167.79;221378;1275;141067;-62
2022/01/13 22:50:33;;;;;;;36.00;17.70;;;;;;;4.60;68.43;100134.42;221346;1276;139692;-61
2022/01/13 22:55:36;;;;;;;31.00;18.10;;;;;;;4.54;68.42;100111.00;221352;1276;139211;-61
2022/01/13 23:00:39;;;;;;;29.10;17.00;;;;;;;4.48;68.24;100092.48;221356;1277;139737;-61
2022/01/13 23:05:43;;;;;;;32.40;18.10;;;;;;;4.50;68.43;100087.72;221191;1276;140687;-59
2022/01/13 23:10:46;;;;;;;29.30;15.60;;;;;;;4.46;68.37;100085.50;221437;1275;139328;-61
2022/01/13 23:26:33;;;;;;;32.90;18.20;;;;;;;4.40;68.41;100056.10;221362;1274;140228;-59
2022/01/13 23:31:36;;;;;;;36.60;20.30;;;;;;;4.39;68.58;100055.08;221271;1276;139754;-59
2022/01/13 23:36:39;;;;;;;32.30;17.90;;;;;;;4.35;68.54;100072.02;221330;1276;139862;-60
2022/01/13 23:41:45;;;;;;;37.80;21.10;;;;;;;4.32;68.63;100083.86;221419;1275;138965;-61
2022/01/13 23:47:06;;;;;;;37.00;17.40;;;;;;;4.32;68.67;100097.21;221424;1276;140199;-59